AirNav   Air Wisconsin pilot careers
 
 919 users online  

WY30 Kinky Creek Divide Airport
Dubois, Wyoming, USA

GOING TO DUBOIS?


FAA INFORMATION EFFECTIVE 16 AUGUST 2018

Location

FAA Identifier: WY30
Lat/Long: 43-22-31.7960N / 110-06-35.6240W
43-22.529933N / 110-06.593733W
43.3754989 / -110.1098956
(estimated)
Elevation: 8803 ft. / 2683 m (estimated)
Variation: 15E (1985)
From city: 23 miles SW of DUBOIS, WY
Time zone: UTC -6 (UTC -7 during Standard Time)
Zip code: 82925

Airport Operations

Airport use: Private use. Permission required prior to landing
Activation date: 07/1969
Control tower: no
ARTCC: SALT LAKE CITY CENTER
FSS: CASPER FLIGHT SERVICE STATION
Attendance: UNATNDD
Wind indicator: yes
Segmented circle: no

Nearby radio navigation aids

VOR radial/distance  VOR name  Freq  Var
DNWr145/28.9DUNOIR VOR/DME117.2015E
JACr106/30.8JACKSON VOR/DME115.4013E

 
NDB name  Hdg/Dist  Freq  Var  ID
WENZ326/37.439213EPNA .--. -. .-

Airport Services

Airframe service: NONE
Powerplant service: NONE

Runway Information

Runway NW/SE

Dimensions: 3450 x 60 ft. / 1052 x 18 m
Surface: turf/dirt
RUNWAY NW  RUNWAY SE
Traffic pattern: leftleft
Obstructions: hillsnone

Airport Ownership and Management from official FAA records

Ownership: Publicly-owned
Owner: DARWIN RANCH
PO BOX 2407, ATTN: PAUL KLINGENSTEIN
CODY, WY 82414
Phone 301-733-5588
THE DARWIN RANCH.
Manager: PAUL KLINGENSTEIN
19 7TH AVE
SAN FRANCISCO, CA 94118
Phone (415) 221-9559

Instrument Procedures

There are no published instrument procedures at WY30.

Some nearby airports with instrument procedures:

KJAC - Jackson Hole Airport (31 nm NW)
KPNA - Ralph Wenz Field Airport (37 nm S)
KBPI - Miley Memorial Field Airport (48 nm S)
KDIJ - Driggs-Reed Memorial Airport (48 nm NW)
KAFO - Afton Municipal Airport (54 nm SW)
 
Loc | Ops | Rwys | IFR | FBO | Links
Com | Nav | Svcs | Stats | Notes


 
Area around WY30 (Kinky Creek Divide Airport)
 
Road maps at: MapQuest Bing Google
 
Aerial photo
WARNING: Photo may not be current or correct
Aerial photo of WY30 (Kinky Creek Divide Airport)
Taken in July 2008

Do you have a better or more recent aerial photo of Kinky Creek Divide Airport that you would like to share? If so, please send us your photo.

 
Sectional chart

 
Airport distance calculator
Flying to Kinky Creek Divide Airport? Find the distance to fly.

From to WY30

Sunrise and sunset
Times for 17-Aug-2018
 Local
(UTC-6)
 Zulu
(UTC)
Morning civil twilight05:5811:58
Sunrise06:2912:29
Sunset20:2002:20
Evening civil twilight20:5102:51

Current date and time
Zulu (UTC)  18-Aug-2018 01:32:48
Local (UTC-6)  17-Aug-2018 19:32:48
 
METAR
KDUB 
21nm NE 
180115Z AUTO 31009KT 10SM CLR 23/00 A3029 RMK AO2
KJAC 
30nm NW 
180056Z 27006KT 10SM CLR 25/02 A3027 RMK AO2 SLP201 T02500022
KPNA 
37nm S 
180115Z AUTO 31012KT 10SM CLR 25/00 A3030 RMK AO2
TAF
KJAC 
30nm NW 
171733Z 1718/1818 21007KT P6SM FEW110 FM180200 27008KT P6SM SCT090 BKN200 FM180400 01010KT P6SM -SHRA BKN090 OVC200 FM181000 VRB04KT P6SM SCT090 AMD LTD TO CLD VIS AND WIND
NOTAMs
Click for the latest NOTAMs
NOTAMs are issued by the DoD/FAA and will open in a separate window not controlled by AirNav.

 

 
 

Would you like to see your business listed on this page?

 If your business provides an interesting product or service to pilots, flight crews, aircraft, or users of the Kinky Creek Divide Airport, you should consider listing it here.  To start the listing process, click on the button below
 
Add a business
 

Other Pages about Kinky Creek Divide Airport

Update a link
 
Copyright © AirNav, LLC. All rights reserved. Privacy Policy  Contact